createdAt,value
2019-03-24T00:00:07.222Z,51.85
2019-03-24T00:02:34.613Z,52.38
2019-03-24T00:05:02.016Z,52.90
2019-03-24T00:07:29.420Z,53.62
2019-03-24T00:09:57.103Z,54.15
2019-03-24T00:12:24.508Z,54.51
2019-03-24T00:14:51.938Z,54.59
2019-03-24T00:17:19.768Z,54.42
2019-03-24T00:19:47.215Z,54.38
2019-03-24T00:22:14.625Z,54.42
2019-03-24T00:24:42.055Z,54.68
2019-03-24T00:27:10.486Z,54.58
2019-03-24T00:29:37.892Z,54.37
2019-03-24T00:32:05.302Z,54.25
2019-03-24T00:34:32.723Z,54.37
2019-03-24T00:37:00.195Z,54.49
2019-03-24T00:39:27.620Z,54.43
2019-03-24T00:41:55.019Z,54.20
2019-03-24T00:44:22.520Z,54.39
2019-03-24T00:46:49.935Z,54.40
2019-03-24T00:49:17.499Z,54.67
2019-03-24T00:51:44.919Z,54.74
2019-03-24T00:54:12.361Z,54.68
2019-03-24T00:56:39.821Z,55.38
2019-03-24T00:59:07.614Z,55.65
2019-03-24T01:01:35.027Z,55.67
2019-03-24T01:04:02.674Z,55.77
2019-03-24T01:06:30.072Z,55.89
2019-03-24T01:08:57.594Z,56.17
2019-03-24T01:11:25.167Z,56.41
2019-03-24T01:13:52.719Z,56.34
2019-03-24T01:16:20.963Z,56.32
2019-03-24T01:18:48.426Z,56.30
2019-03-24T01:21:15.896Z,56.33
2019-03-24T01:23:43.308Z,56.57
2019-03-24T01:26:10.724Z,56.76
2019-03-24T01:28:38.132Z,57.09
2019-03-24T01:31:05.563Z,57.15
2019-03-24T01:33:33.632Z,57.17
2019-03-24T01:36:01.075Z,56.91
2019-03-24T01:38:28.499Z,56.53
2019-03-24T01:40:55.968Z,56.34
2019-03-24T01:43:23.401Z,56.26
2019-03-24T01:45:58.474Z,56.55
2019-03-24T01:48:19.149Z,57.04
2019-03-24T01:50:46.570Z,56.93
2019-03-24T01:53:14.073Z,56.72
2019-03-24T01:55:41.522Z,56.44
2019-03-24T01:58:09.114Z,56.56
2019-03-24T02:00:36.625Z,56.60
2019-03-24T02:03:04.080Z,56.62
2019-03-24T02:05:31.494Z,57.01
2019-03-24T02:07:58.905Z,57.07
2019-03-24T02:10:26.439Z,57.24
2019-03-24T02:12:53.835Z,57.15
2019-03-24T02:15:21.249Z,57.30
2019-03-24T02:17:48.639Z,57.45
2019-03-24T02:20:16.044Z,57.57
2019-03-24T02:22:43.563Z,57.51
2019-03-24T02:25:10.992Z,57.29
2019-03-24T02:27:38.399Z,57.07
2019-03-24T02:30:06.338Z,57.02
2019-03-24T02:32:33.746Z,57.06
2019-03-24T02:35:01.142Z,57.10
2019-03-24T02:37:28.551Z,57.25
2019-03-24T02:39:56.111Z,57.45
2019-03-24T02:42:23.506Z,57.30
2019-03-24T02:44:50.963Z,57.44
2019-03-24T02:47:18.528Z,57.40
2019-03-24T02:49:45.985Z,57.46
2019-03-24T02:52:13.446Z,57.33
2019-03-24T02:54:41.239Z,57.09
2019-03-24T02:57:08.631Z,56.84
2019-03-24T02:59:36.046Z,56.69
2019-03-24T03:02:03.574Z,56.37
2019-03-24T03:04:31.036Z,56.52
2019-03-24T03:06:58.438Z,57.26
2019-03-24T03:09:25.856Z,58.30
2019-03-24T03:11:53.263Z,58.76
2019-03-24T03:14:20.679Z,58.94
2019-03-24T03:16:48.090Z,59.02
2019-03-24T03:19:15.675Z,59.35
2019-03-24T03:21:43.140Z,59.65
2019-03-24T03:24:10.549Z,59.98
2019-03-24T03:26:38.065Z,60.15
2019-03-24T03:29:05.517Z,60.06
2019-03-24T03:31:32.933Z,60.06
2019-03-24T03:34:00.338Z,59.89
2019-03-24T03:36:28.183Z,59.73
2019-03-24T03:38:55.511Z,59.70
2019-03-24T03:41:23.022Z,59.66
2019-03-24T03:43:50.454Z,59.77
2019-03-24T03:46:17.937Z,59.76
2019-03-24T03:48:45.328Z,59.54
2019-03-24T03:51:12.740Z,59.83
2019-03-24T03:53:40.171Z,59.99
2019-03-24T03:56:07.660Z,60.35
2019-03-24T03:58:35.079Z,60.68
2019-03-24T04:01:03.065Z,61.11
2019-03-24T04:03:30.456Z,61.43
2019-03-24T04:05:57.881Z,61.18
2019-03-24T04:08:25.266Z,60.52
2019-03-24T04:10:52.685Z,60.29
2019-03-24T04:13:20.111Z,60.07
2019-03-24T04:15:47.560Z,60.03
2019-03-24T04:18:15.075Z,59.89
2019-03-24T04:20:42.470Z,59.60
2019-03-24T04:23:09.923Z,59.48
2019-03-24T04:25:37.564Z,59.97
2019-03-24T04:28:05.115Z,60.51
2019-03-24T04:30:32.507Z,60.57
2019-03-24T04:32:59.978Z,60.69
2019-03-24T04:35:27.480Z,60.57
2019-03-24T04:37:55.488Z,60.59
2019-03-24T04:40:23.056Z,60.82
2019-03-24T04:42:50.412Z,61.01
2019-03-24T04:45:17.951Z,61.28
2019-03-24T04:47:45.603Z,61.28
2019-03-24T04:50:13.004Z,61.46
2019-03-24T04:52:40.507Z,61.79
2019-03-24T04:55:07.960Z,62.13
2019-03-24T04:57:35.377Z,62.19
2019-03-24T05:00:02.784Z,62.17
2019-03-24T05:02:30.182Z,62.17
2019-03-24T05:04:57.580Z,62.06
2019-03-24T05:07:24.979Z,61.61
2019-03-24T05:09:54.418Z,61.41
2019-03-24T05:12:19.841Z,61.28
2019-03-24T05:14:47.241Z,61.00
2019-03-24T05:17:14.647Z,60.85
2019-03-24T05:19:43.039Z,60.76
2019-03-24T05:22:10.445Z,60.87
2019-03-24T05:24:37.848Z,60.99
2019-03-24T05:27:05.286Z,61.10
2019-03-24T05:29:32.723Z,61.14
2019-03-24T05:32:00.159Z,61.34
2019-03-24T05:34:27.579Z,61.71
2019-03-24T05:36:54.993Z,62.09
2019-03-24T05:39:22.410Z,61.97
2019-03-24T05:41:49.866Z,62.15
2019-03-24T05:44:17.432Z,62.25
2019-03-24T05:46:44.867Z,62.24
2019-03-24T05:49:12.262Z,62.22
2019-03-24T05:51:39.733Z,62.38
2019-03-24T05:54:07.177Z,62.56
2019-03-24T05:56:34.572Z,62.52
2019-03-24T05:59:01.959Z,62.61
2019-03-24T06:01:29.393Z,62.55
2019-03-24T06:03:56.835Z,62.24
2019-03-24T06:06:24.229Z,61.86
2019-03-24T06:08:51.655Z,61.91
2019-03-24T06:11:19.055Z,61.45
2019-03-24T06:13:46.584Z,61.22
2019-03-24T06:16:14.052Z,61.24
2019-03-24T06:18:41.497Z,61.00
2019-03-24T06:21:08.963Z,60.76
2019-03-24T06:23:36.390Z,60.18
2019-03-24T06:26:03.807Z,59.83
2019-03-24T06:28:31.244Z,59.09
2019-03-24T06:30:58.653Z,58.35
2019-03-24T06:33:26.099Z,57.50
2019-03-24T06:35:53.515Z,57.06
2019-03-24T06:38:20.935Z,56.79
2019-03-24T06:40:49.595Z,56.35
2019-03-24T06:43:17.041Z,56.02
2019-03-24T06:45:44.658Z,55.79
2019-03-24T06:48:12.134Z,55.49
2019-03-24T06:50:39.545Z,55.29
2019-03-24T06:53:07.049Z,55.31
2019-03-24T06:55:34.500Z,55.29
2019-03-24T06:58:01.906Z,55.31
2019-03-24T07:00:29.407Z,55.35
2019-03-24T07:02:56.861Z,55.17
2019-03-24T07:05:24.256Z,54.86
2019-03-24T07:07:51.692Z,54.62
2019-03-24T07:10:19.144Z,54.34
2019-03-24T07:12:46.625Z,54.26
2019-03-24T07:15:14.054Z,54.12
2019-03-24T07:17:41.501Z,53.90
2019-03-24T07:20:09.064Z,53.51
2019-03-24T07:22:36.530Z,53.36
2019-03-24T07:25:03.991Z,53.09
2019-03-24T07:27:31.434Z,52.66
2019-03-24T07:29:58.893Z,52.09
2019-03-24T07:32:25.940Z,51.32
2019-03-24T07:34:52.911Z,50.71
2019-03-24T07:37:19.874Z,50.51
2019-03-24T07:39:46.874Z,50.35
2019-03-24T07:42:13.963Z,50.25
2019-03-24T07:44:40.914Z,50.21
2019-03-24T07:47:12.114Z,49.88
2019-03-24T07:49:39.525Z,49.17
2019-03-24T07:52:07.031Z,48.62
2019-03-24T07:54:34.437Z,48.38
2019-03-24T07:57:01.948Z,47.75
2019-03-24T07:59:29.405Z,47.02
2019-03-24T08:01:56.799Z,46.30
2019-03-24T08:04:24.230Z,46.13
2019-03-24T08:06:51.706Z,45.79
2019-03-24T08:09:19.151Z,45.33
2019-03-24T08:11:46.656Z,45.33
2019-03-24T08:14:14.264Z,44.91
2019-03-24T08:16:41.749Z,44.40
2019-03-24T08:19:09.171Z,43.88
2019-03-24T08:21:36.737Z,43.37
2019-03-24T08:24:04.184Z,43.00
2019-03-24T08:26:31.129Z,42.60
2019-03-24T08:28:58.554Z,42.21
2019-03-24T08:31:25.972Z,42.04
2019-03-24T08:33:53.422Z,42.21
2019-03-24T08:36:20.841Z,41.96
2019-03-24T08:38:48.255Z,42.20
2019-03-24T08:41:15.667Z,42.33
2019-03-24T08:43:43.236Z,42.24
2019-03-24T08:46:10.635Z,41.95
2019-03-24T08:48:41.048Z,41.34
2019-03-24T08:51:05.597Z,41.15
2019-03-24T08:53:33.005Z,41.33
2019-03-24T08:56:00.414Z,41.22
2019-03-24T08:58:27.831Z,41.32
2019-03-24T09:00:55.271Z,41.04
2019-03-24T09:03:22.698Z,40.23
2019-03-24T09:05:50.098Z,39.60
2019-03-24T09:08:17.611Z,40.26
2019-03-24T09:10:45.071Z,40.09
2019-03-24T09:13:12.551Z,40.56
2019-03-24T09:15:39.997Z,39.63
2019-03-24T09:18:07.428Z,39.14
2019-03-24T09:20:41.675Z,38.77
2019-03-24T09:23:02.329Z,39.35
2019-03-24T09:25:29.900Z,38.75
2019-03-24T09:27:56.855Z,38.13
2019-03-24T09:30:25.723Z,37.66
2019-03-24T09:32:52.690Z,37.62
2019-03-24T09:35:20.107Z,37.79
2019-03-24T09:37:47.094Z,37.70
2019-03-24T09:40:14.132Z,37.66
2019-03-24T09:42:41.591Z,37.80
2019-03-24T09:45:09.133Z,37.21
2019-03-24T09:47:36.550Z,36.88
2019-03-24T09:50:03.946Z,36.45
2019-03-24T09:52:30.962Z,36.05
2019-03-24T09:54:57.970Z,35.88
2019-03-24T09:57:25.166Z,34.87
2019-03-24T09:59:52.593Z,34.66
2019-03-24T10:02:20.173Z,34.42
2019-03-24T10:04:47.619Z,34.57
2019-03-24T10:07:14.584Z,34.78
2019-03-24T10:09:42.046Z,34.79
2019-03-24T10:12:09.468Z,35.07
2019-03-24T10:14:36.900Z,34.68
2019-03-24T10:17:04.307Z,33.95
2019-03-24T10:19:31.750Z,33.62
2019-03-24T10:21:58.876Z,33.64
2019-03-24T10:24:26.533Z,33.25
2019-03-24T10:26:53.992Z,33.01
2019-03-24T10:29:21.447Z,32.74
2019-03-24T10:31:48.900Z,32.46
2019-03-24T10:34:16.459Z,32.06
2019-03-24T10:36:43.470Z,31.64
2019-03-24T10:39:11.080Z,31.11
2019-03-24T10:41:38.154Z,30.60
2019-03-24T10:44:05.599Z,30.06
2019-03-24T10:46:33.168Z,29.67
2019-03-24T10:49:00.613Z,29.59
2019-03-24T10:51:28.034Z,29.37
2019-03-24T10:53:55.442Z,29.22
2019-03-24T10:56:22.985Z,29.05
2019-03-24T10:58:50.412Z,28.89
2019-03-24T11:01:18.801Z,28.55
2019-03-24T11:03:46.197Z,28.33
2019-03-24T11:06:13.698Z,27.97
2019-03-24T11:08:41.129Z,27.60
2019-03-24T11:11:08.565Z,27.19
2019-03-24T11:13:36.008Z,27.03
2019-03-24T11:16:03.134Z,27.31
2019-03-24T11:18:30.100Z,27.37
2019-03-24T11:20:57.090Z,27.01
2019-03-24T11:23:24.083Z,26.54
2019-03-24T11:25:52.286Z,26.01
2019-03-24T11:28:20.709Z,25.66
2019-03-24T11:30:48.121Z,25.47
2019-03-24T11:33:15.564Z,25.09
2019-03-24T11:35:42.988Z,25.00
2019-03-24T11:38:10.582Z,25.11
2019-03-24T11:40:37.524Z,25.08
2019-03-24T11:43:04.475Z,24.78
2019-03-24T11:45:31.450Z,25.02
2019-03-24T11:47:58.417Z,25.19
2019-03-24T11:50:25.379Z,25.11
2019-03-24T11:52:52.538Z,24.97
2019-03-24T11:55:19.510Z,24.65
2019-03-24T11:57:46.474Z,24.05
2019-03-24T12:00:13.475Z,23.57
2019-03-24T12:02:40.575Z,23.36
2019-03-24T12:05:07.979Z,23.46
2019-03-24T12:07:35.022Z,23.31
2019-03-24T12:10:01.984Z,22.88
2019-03-24T12:12:28.995Z,22.70
2019-03-24T12:14:56.576Z,22.55
2019-03-24T12:17:23.515Z,22.05
2019-03-24T12:19:56.710Z,21.68
2019-03-24T12:22:18.436Z,21.63
2019-03-24T12:24:45.586Z,21.80
2019-03-24T12:27:13.060Z,21.86
2019-03-24T12:29:40.493Z,21.37
2019-03-24T12:32:07.908Z,21.24
2019-03-24T12:34:35.314Z,20.94
2019-03-24T12:37:02.737Z,20.67
2019-03-24T12:39:30.173Z,20.67
2019-03-24T12:41:57.595Z,20.92
2019-03-24T12:44:25.047Z,20.94
2019-03-24T12:46:52.474Z,20.73
2019-03-24T12:49:19.903Z,20.92
2019-03-24T12:51:47.304Z,20.68
2019-03-24T12:54:15.374Z,20.63
2019-03-24T12:56:42.412Z,20.62
2019-03-24T12:59:09.558Z,20.38
2019-03-24T13:01:36.505Z,20.25
2019-03-24T13:04:03.923Z,19.97
2019-03-24T13:06:31.440Z,19.99
2019-03-24T13:08:58.407Z,19.78
2019-03-24T13:11:25.426Z,19.66
2019-03-24T13:13:52.549Z,19.52
2019-03-24T13:16:19.660Z,19.59
2019-03-24T13:18:46.684Z,19.62
2019-03-24T13:21:13.646Z,19.46
2019-03-24T13:23:40.796Z,19.44
2019-03-24T13:26:07.927Z,18.97
2019-03-24T13:28:34.921Z,18.58
2019-03-24T13:31:01.869Z,18.47
2019-03-24T13:33:28.839Z,18.69
2019-03-24T13:36:01.433Z,18.76
2019-03-24T13:38:28.859Z,18.94
2019-03-24T13:40:55.808Z,19.16
2019-03-24T13:43:22.783Z,19.22
2019-03-24T13:45:49.712Z,19.13
2019-03-24T13:48:16.686Z,19.10
2019-03-24T13:50:43.659Z,19.28
2019-03-24T13:53:11.382Z,19.35
2019-03-24T13:55:38.373Z,19.29
2019-03-24T13:58:05.308Z,19.13
2019-03-24T14:00:32.267Z,18.94
2019-03-24T14:02:59.288Z,18.68
2019-03-24T14:05:26.327Z,18.56
2019-03-24T14:07:53.284Z,18.52
2019-03-24T14:10:20.236Z,18.66
2019-03-24T14:12:47.192Z,18.66
2019-03-24T14:15:14.166Z,18.77
2019-03-24T14:17:41.165Z,18.69
2019-03-24T14:20:08.151Z,18.85
2019-03-24T14:22:35.208Z,18.82
2019-03-24T14:25:02.166Z,18.90
2019-03-24T14:27:29.310Z,18.96
2019-03-24T14:29:56.323Z,19.04
2019-03-24T14:32:23.268Z,19.61
2019-03-24T14:34:50.227Z,19.98
2019-03-24T14:37:17.155Z,20.30
2019-03-24T14:39:44.094Z,20.97
2019-03-24T14:42:11.062Z,21.56
2019-03-24T14:44:38.096Z,21.77
2019-03-24T14:47:05.737Z,22.00
2019-03-24T14:49:34.031Z,21.94
2019-03-24T14:52:00.982Z,21.91
2019-03-24T14:54:27.969Z,21.89
2019-03-24T14:56:55.029Z,21.67
2019-03-24T14:59:22.003Z,21.78
2019-03-24T15:01:49.154Z,21.83
2019-03-24T15:04:16.162Z,22.17
2019-03-24T15:06:43.123Z,22.18
2019-03-24T15:09:10.174Z,22.25
2019-03-24T15:11:37.234Z,22.18
2019-03-24T15:14:04.168Z,22.07
2019-03-24T15:16:31.115Z,21.93
2019-03-24T15:18:58.526Z,21.86
2019-03-24T15:21:25.530Z,21.79
2019-03-24T15:23:52.491Z,21.92
2019-03-24T15:26:19.524Z,21.79
2019-03-24T15:28:46.486Z,21.66
2019-03-24T15:31:13.430Z,21.67
2019-03-24T15:33:40.417Z,21.91
2019-03-24T15:36:07.456Z,22.16
2019-03-24T15:38:34.649Z,22.61
2019-03-24T15:41:01.851Z,22.48
2019-03-24T15:43:28.849Z,22.35
2019-03-24T15:45:56.007Z,22.32
2019-03-24T15:48:23.025Z,22.62
2019-03-24T15:50:50.054Z,22.80
2019-03-24T15:53:17.389Z,22.92
2019-03-24T15:55:44.471Z,22.87
2019-03-24T15:58:11.573Z,22.74
2019-03-24T16:00:40.498Z,22.79
2019-03-24T16:03:07.574Z,23.00
2019-03-24T16:05:34.531Z,23.00
2019-03-24T16:08:02.128Z,22.91
2019-03-24T16:10:35.153Z,23.04
2019-03-24T16:12:56.123Z,23.31
2019-03-24T16:15:23.091Z,23.30
2019-03-24T16:17:51.910Z,23.09
2019-03-24T16:20:17.376Z,23.06
2019-03-24T16:22:44.374Z,23.29
2019-03-24T16:25:11.346Z,23.28
2019-03-24T16:27:38.280Z,23.79
2019-03-24T16:30:06.185Z,23.93
2019-03-24T16:32:34.186Z,24.02
2019-03-24T16:35:01.136Z,24.06
2019-03-24T16:37:28.578Z,24.18
2019-03-24T16:39:55.574Z,24.26
2019-03-24T16:42:22.559Z,24.31
2019-03-24T16:44:49.708Z,24.41
2019-03-24T16:47:18.400Z,24.47
2019-03-24T16:49:45.999Z,24.77
2019-03-24T16:52:13.456Z,24.81
2019-03-24T16:54:40.868Z,25.00
2019-03-24T16:57:08.310Z,25.46
2019-03-24T16:59:35.701Z,26.12
2019-03-24T17:02:03.168Z,26.74
2019-03-24T17:04:30.717Z,27.39
2019-03-24T17:06:58.305Z,27.85
2019-03-24T17:09:25.800Z,28.27
2019-03-24T17:11:53.510Z,28.73
2019-03-24T17:14:20.929Z,29.28
2019-03-24T17:16:48.542Z,29.69
2019-03-24T17:19:15.975Z,30.18
2019-03-24T17:21:50.025Z,30.49
2019-03-24T17:24:11.008Z,30.74
2019-03-24T17:26:38.474Z,31.18
2019-03-24T17:29:05.972Z,31.61
2019-03-24T17:31:33.484Z,32.05
2019-03-24T17:34:00.901Z,32.64
2019-03-24T17:36:28.354Z,33.20
2019-03-24T17:38:56.156Z,33.63
2019-03-24T17:41:23.658Z,33.96
2019-03-24T17:43:51.113Z,34.31
2019-03-24T17:46:19.575Z,34.53
2019-03-24T17:48:46.207Z,35.20
2019-03-24T17:51:13.767Z,35.54
2019-03-24T17:53:41.195Z,35.82
2019-03-24T17:56:08.622Z,36.14
2019-03-24T17:58:36.056Z,36.53
2019-03-24T18:01:03.629Z,36.94
2019-03-24T18:03:31.080Z,37.38
2019-03-24T18:05:59.638Z,37.87
2019-03-24T18:08:25.979Z,38.42
2019-03-24T18:10:53.382Z,38.99
2019-03-24T18:13:20.850Z,39.04
2019-03-24T18:15:48.407Z,38.87
2019-03-24T18:18:15.982Z,38.75
2019-03-24T18:20:43.383Z,38.58
2019-03-24T18:23:11.035Z,38.45
2019-03-24T18:25:38.730Z,38.20
2019-03-24T18:28:06.156Z,37.93
2019-03-24T18:30:33.747Z,37.35
2019-03-24T18:33:01.239Z,37.20
2019-03-24T18:35:28.650Z,37.07
2019-03-24T18:37:56.181Z,36.64
2019-03-24T18:40:23.593Z,36.23
2019-03-24T18:42:51.198Z,36.14
2019-03-24T18:45:18.654Z,36.13
2019-03-24T18:47:46.089Z,36.23
2019-03-24T18:50:13.490Z,36.09
2019-03-24T18:52:40.953Z,36.15
2019-03-24T18:55:08.797Z,36.17
2019-03-24T18:57:36.347Z,36.12
2019-03-24T19:00:07.621Z,36.57
2019-03-24T19:02:35.036Z,36.66
2019-03-24T19:05:02.516Z,36.56
2019-03-24T19:07:30.176Z,36.52
2019-03-24T19:09:57.664Z,36.41
2019-03-24T19:12:25.070Z,36.45
2019-03-24T19:14:52.519Z,36.52
2019-03-24T19:17:20.021Z,36.82
2019-03-24T19:19:47.594Z,37.34
2019-03-24T19:22:15.161Z,37.29
2019-03-24T19:24:42.654Z,37.49
2019-03-24T19:27:10.063Z,37.55
2019-03-24T19:29:37.698Z,37.33
2019-03-24T19:32:05.227Z,36.96
2019-03-24T19:34:32.658Z,36.78
2019-03-24T19:37:00.799Z,36.66
2019-03-24T19:39:28.338Z,36.63
2019-03-24T19:41:55.912Z,36.75
2019-03-24T19:44:23.467Z,36.80
2019-03-24T19:46:51.097Z,36.98
2019-03-24T19:49:18.654Z,37.34
2019-03-24T19:51:46.195Z,37.69
2019-03-24T19:54:13.651Z,37.84
2019-03-24T19:56:41.160Z,37.91
2019-03-24T19:59:08.695Z,38.09
2019-03-24T20:01:36.263Z,38.08
2019-03-24T20:04:03.738Z,38.27
2019-03-24T20:06:31.146Z,38.83
2019-03-24T20:08:58.644Z,39.54
2019-03-24T20:11:26.044Z,40.34
2019-03-24T20:13:53.450Z,40.92
2019-03-24T20:16:20.954Z,41.43
2019-03-24T20:18:48.436Z,41.93
2019-03-24T20:21:15.828Z,42.59
2019-03-24T20:23:43.254Z,43.09
2019-03-24T20:26:10.705Z,43.38
2019-03-24T20:28:38.149Z,43.28
2019-03-24T20:31:05.713Z,43.08
2019-03-24T20:33:33.118Z,43.07
2019-03-24T20:36:00.563Z,43.21
2019-03-24T20:38:28.040Z,43.41
2019-03-24T20:40:55.588Z,43.71
2019-03-24T20:43:23.054Z,44.28
2019-03-24T20:45:50.443Z,44.64
2019-03-24T20:48:17.995Z,44.57
2019-03-24T20:50:45.483Z,44.41
2019-03-24T20:53:17.959Z,44.31
2019-03-24T20:55:40.544Z,44.26
2019-03-24T20:58:07.983Z,44.51
2019-03-24T21:00:35.469Z,44.73
2019-03-24T21:03:02.987Z,44.89
2019-03-24T21:05:30.476Z,45.15
2019-03-24T21:07:57.934Z,45.35
2019-03-24T21:10:26.298Z,45.54
2019-03-24T21:12:53.734Z,45.81
2019-03-24T21:15:21.158Z,45.92
2019-03-24T21:17:48.564Z,46.06
2019-03-24T21:20:16.060Z,46.30
2019-03-24T21:22:43.501Z,46.50
2019-03-24T21:25:10.978Z,46.64
2019-03-24T21:27:38.530Z,46.74
2019-03-24T21:30:05.955Z,46.80
2019-03-24T21:32:33.372Z,46.95
2019-03-24T21:35:00.783Z,46.97
2019-03-24T21:37:28.328Z,47.05
2019-03-24T21:39:55.783Z,47.08
2019-03-24T21:42:23.267Z,47.27
2019-03-24T21:44:50.737Z,47.30
2019-03-24T21:47:18.201Z,47.34
2019-03-24T21:49:45.683Z,47.42
2019-03-24T21:52:13.136Z,47.52
2019-03-24T21:54:40.576Z,47.69
2019-03-24T21:57:08.027Z,47.69
2019-03-24T21:59:35.462Z,47.66
2019-03-24T22:02:02.998Z,47.62
2019-03-24T22:04:30.788Z,47.39
2019-03-24T22:06:58.208Z,47.31
2019-03-24T22:09:25.706Z,47.42
2019-03-24T22:11:53.141Z,47.90
2019-03-24T22:14:20.556Z,48.52
2019-03-24T22:16:47.979Z,48.99
2019-03-24T22:19:15.430Z,48.83
2019-03-24T22:21:42.874Z,48.83
2019-03-24T22:24:10.687Z,49.07
2019-03-24T22:26:38.112Z,49.51
2019-03-24T22:29:05.522Z,49.62
2019-03-24T22:31:33.086Z,49.40
2019-03-24T22:34:00.610Z,49.34
2019-03-24T22:36:28.263Z,49.21
2019-03-24T22:38:55.730Z,48.87
2019-03-24T22:41:23.212Z,48.66
2019-03-24T22:43:50.629Z,48.51
2019-03-24T22:46:18.094Z,48.64
2019-03-24T22:48:45.493Z,48.85
2019-03-24T22:51:12.891Z,49.05
2019-03-24T22:53:40.296Z,49.02
2019-03-24T22:56:07.699Z,48.75
2019-03-24T22:58:35.104Z,48.51
2019-03-24T23:01:02.539Z,48.46
2019-03-24T23:03:29.961Z,48.49
2019-03-24T23:05:57.551Z,48.45
2019-03-24T23:08:25.003Z,48.57
2019-03-24T23:10:52.426Z,48.93
2019-03-24T23:13:19.834Z,49.36
2019-03-24T23:15:47.366Z,50.02
2019-03-24T23:18:14.830Z,49.88
2019-03-24T23:20:42.257Z,49.97
2019-03-24T23:23:09.663Z,49.55
2019-03-24T23:25:37.162Z,49.28
2019-03-24T23:28:04.570Z,49.29
2019-03-24T23:30:31.993Z,49.02
2019-03-24T23:32:59.415Z,48.83
2019-03-24T23:35:26.831Z,48.79
2019-03-24T23:37:54.254Z,49.06
2019-03-24T23:40:21.652Z,49.34
2019-03-24T23:42:49.082Z,49.62
2019-03-24T23:45:16.648Z,50.26
2019-03-24T23:47:44.052Z,51.00
2019-03-24T23:50:11.495Z,51.55
2019-03-24T23:52:38.931Z,51.79
2019-03-24T23:55:06.365Z,51.90
2019-03-24T23:57:33.760Z,52.00
